Elizabeth, Illinois
Current Conditions -  °F | °C
As of 3:35 AM on Friday 31 Oct 2014 (Local Time) from KSFY Reporting Station
Overcast Overcast  
Wind Chill: 35°   Ceiling: 5500
Heat Index: 42°   Visibility: 10mi
Dew Point: 24°   Wind: 14mph
Humidity: 49%   Direction: 330°NNW
Pressure: 30.15"   Gusts: 32mph
Location:  42.32°N, 90.22°W
Report Text: KSFY 310835Z AUTO 33012G28KT 10SM SCT047 OVC055 06/M04 A3015 RMK AO2 T00581042
Loading
Personal Weather Stations






























Interactive Weather Map
Tropical Storm Tracking
New forecast layout! Learn more

10-Day Weather Forecast

Advertisements
Track Severe Weather on mobile